createdAt,value
2022-10-18T00:00:18.793Z,92825.03
2022-10-18T00:02:45.527Z,92802.31
2022-10-18T00:05:12.220Z,92807.38
2022-10-18T00:07:38.943Z,92813.44
2022-10-18T00:10:06.223Z,92815.38
2022-10-18T00:12:35.466Z,92787.78
2022-10-18T00:15:02.965Z,92814.03
2022-10-18T00:17:29.926Z,92807.78
2022-10-18T00:19:56.874Z,92808.75
2022-10-18T00:22:23.800Z,92801.16
2022-10-18T00:24:50.497Z,92800.28
2022-10-18T00:27:18.380Z,92801.63
2022-10-18T00:29:45.282Z,92798.56
2022-10-18T00:32:14.909Z,92790.59
2022-10-18T00:34:41.545Z,92767.31
2022-10-18T00:37:08.238Z,92778.03
2022-10-18T00:39:35.238Z,92787.06
2022-10-18T00:42:03.552Z,92777.44
2022-10-18T00:44:30.207Z,92782.19
2022-10-18T00:47:02.370Z,92771.06
2022-10-18T00:49:34.126Z,92774.38
2022-10-18T00:52:11.578Z,92760.94
2022-10-18T00:54:41.797Z,92776.72
2022-10-18T00:57:10.390Z,92767.34
2022-10-18T00:59:37.623Z,92780.03
2022-10-18T01:02:05.769Z,92764.19
2022-10-18T01:04:32.794Z,92762.56
2022-10-18T01:07:05.130Z,92758.28
2022-10-18T01:09:56.445Z,92757.59
2022-10-18T01:12:35.148Z,92758.78
2022-10-18T01:15:28.268Z,92735.59
2022-10-18T01:18:03.937Z,92749.91
2022-10-18T01:21:13.308Z,92744.97
2022-10-18T01:24:28.270Z,92742.13
2022-10-18T01:27:03.925Z,92749.06
2022-10-18T01:29:39.838Z,92744.94
2022-10-18T01:32:24.482Z,92725.13
2022-10-18T01:34:57.248Z,92723.28
2022-10-18T01:37:26.331Z,92751.16
2022-10-18T01:39:56.568Z,92751.88
2022-10-18T01:42:24.098Z,92750.44
2022-10-18T01:44:52.876Z,92742.66
2022-10-18T01:47:21.669Z,92738.81
2022-10-18T01:49:48.354Z,92715.03
2022-10-18T01:52:16.408Z,92744.56
2022-10-18T01:54:49.094Z,92735.88
2022-10-18T01:57:31.722Z,92720.97
2022-10-18T02:00:24.703Z,92738.63
2022-10-18T02:02:58.826Z,92723.97
2022-10-18T02:05:34.647Z,92741.72
2022-10-18T02:08:22.044Z,92736.97
2022-10-18T02:10:54.380Z,92736.84
2022-10-18T02:13:23.669Z,92734.25
2022-10-18T02:15:56.427Z,92705.06
2022-10-18T02:18:32.722Z,92722.03
2022-10-18T02:21:03.103Z,92722.88
2022-10-18T02:23:31.441Z,92735.31
2022-10-18T02:25:58.272Z,92724.47
2022-10-18T02:31:15.928Z,92720.69
2022-10-18T02:33:57.009Z,92719.63
2022-10-18T02:36:45.528Z,92721.31
2022-10-18T02:39:18.709Z,92715.28
2022-10-18T02:41:45.649Z,92715.91
2022-10-18T02:44:12.360Z,92705.13
2022-10-18T02:46:40.010Z,92705.69
2022-10-18T02:49:07.245Z,92721.91
2022-10-18T02:51:33.875Z,92725.31
2022-10-18T02:54:00.620Z,92722.22
2022-10-18T02:56:27.289Z,92728.19
2022-10-18T02:58:54.310Z,92722.22
2022-10-18T03:01:21.097Z,92714.75
2022-10-18T03:03:47.906Z,92710.91
2022-10-18T03:06:14.584Z,92716.91
2022-10-18T03:08:41.268Z,92710.19
2022-10-18T03:11:08.050Z,92718.47
2022-10-18T03:13:35.133Z,92708.16
2022-10-18T03:16:02.306Z,92702.13
2022-10-18T03:18:29.140Z,92700.66
2022-10-18T03:20:55.831Z,92725.88
2022-10-18T03:23:22.511Z,92718.56
2022-10-18T03:25:49.239Z,92718.78
2022-10-18T03:28:15.947Z,92715.09
2022-10-18T03:30:42.570Z,92724.84
2022-10-18T03:33:09.840Z,92712.38
2022-10-18T03:35:36.468Z,92729.19
2022-10-18T03:38:03.287Z,92729.84
2022-10-18T03:42:57.536Z,92737.13
2022-10-18T03:45:28.845Z,92740.16
2022-10-18T03:47:57.932Z,92743.50
2022-10-18T03:50:24.615Z,92742.38
2022-10-18T03:52:51.268Z,92736.00
2022-10-18T03:55:17.945Z,92721.94
2022-10-18T03:57:44.612Z,92726.63
2022-10-18T04:00:12.735Z,92718.84
2022-10-18T04:02:39.583Z,92733.47
2022-10-18T04:05:07.611Z,92724.22
2022-10-18T04:10:07.638Z,92731.13
2022-10-18T04:12:34.594Z,92728.09
2022-10-18T04:15:01.628Z,92724.00
2022-10-18T04:17:28.338Z,92729.13
2022-10-18T04:19:55.064Z,92720.81
2022-10-18T04:22:21.727Z,92725.44
2022-10-18T04:24:48.480Z,92724.63
2022-10-18T04:27:15.179Z,92725.03
2022-10-18T04:29:41.860Z,92723.25
2022-10-18T04:32:08.643Z,92726.94
2022-10-18T04:34:35.314Z,92731.34
2022-10-18T04:37:01.999Z,92734.47
2022-10-18T04:39:28.798Z,92728.19
2022-10-18T04:41:55.516Z,92736.97
2022-10-18T04:44:22.977Z,92721.53
2022-10-18T04:46:49.819Z,92735.38
2022-10-18T04:49:16.500Z,92731.50
2022-10-18T04:51:43.161Z,92732.72
2022-10-18T04:54:09.803Z,92737.56
2022-10-18T04:56:36.502Z,92724.28
2022-10-18T04:59:03.250Z,92720.59
2022-10-18T05:01:30.026Z,92741.78
2022-10-18T05:03:56.731Z,92708.75
2022-10-18T05:06:23.561Z,92740.53
2022-10-18T05:08:50.298Z,92738.91
2022-10-18T05:11:16.993Z,92731.16
2022-10-18T05:13:46.040Z,92739.81
2022-10-18T05:16:16.101Z,92741.44
2022-10-18T05:18:43.390Z,92732.81
2022-10-18T05:21:10.088Z,92743.91
2022-10-18T05:23:36.791Z,92736.13
2022-10-18T05:26:06.664Z,92746.97
2022-10-18T05:28:39.261Z,92748.94
2022-10-18T05:31:09.839Z,92742.63
2022-10-18T05:33:36.553Z,92760.38
2022-10-18T05:36:03.466Z,92761.75
2022-10-18T05:38:33.067Z,92746.06
2022-10-18T05:41:00.170Z,92723.59
2022-10-18T05:43:30.382Z,92768.84
2022-10-18T05:45:57.212Z,92761.59
2022-10-18T05:48:23.921Z,92755.19
2022-10-18T05:50:50.602Z,92754.19
2022-10-18T05:53:36.722Z,92750.09
2022-10-18T05:56:04.278Z,92754.50
2022-10-18T05:58:30.951Z,92757.88
2022-10-18T06:01:01.937Z,92760.91
2022-10-18T06:03:30.978Z,92746.19
2022-10-18T06:06:04.891Z,92749.38
2022-10-18T06:08:31.742Z,92735.66
2022-10-18T06:10:58.478Z,92732.66
2022-10-18T06:13:25.220Z,92740.03
2022-10-18T06:15:57.282Z,92738.41
2022-10-18T06:18:24.113Z,92745.47
2022-10-18T06:20:56.848Z,92754.16
2022-10-18T06:23:23.559Z,92750.03
2022-10-18T06:25:50.214Z,92744.91
2022-10-18T06:28:16.862Z,92727.03
2022-10-18T06:30:44.466Z,92744.34
2022-10-18T06:33:12.072Z,92756.91
2022-10-18T06:35:38.755Z,92742.84
2022-10-18T06:38:08.362Z,92738.53
2022-10-18T06:40:38.118Z,92740.25
2022-10-18T06:43:20.705Z,92740.19
2022-10-18T06:45:48.806Z,92731.06
2022-10-18T06:48:16.336Z,92736.34
2022-10-18T06:50:43.456Z,92733.00
2022-10-18T06:53:10.239Z,92731.53
2022-10-18T06:55:36.890Z,92730.22
2022-10-18T06:58:03.668Z,92730.69
2022-10-18T07:00:30.352Z,92721.03
2022-10-18T07:02:58.381Z,92722.47
2022-10-18T07:05:25.181Z,92719.97
2022-10-18T07:07:54.342Z,92719.91
2022-10-18T07:10:24.300Z,92719.06
2022-10-18T07:12:53.487Z,92722.25
2022-10-18T07:15:24.298Z,92715.97
2022-10-18T07:17:51.108Z,92718.22
2022-10-18T07:20:17.967Z,92709.69
2022-10-18T07:22:44.619Z,92704.66
2022-10-18T07:25:11.294Z,92678.00
2022-10-18T07:27:40.008Z,92699.22
2022-10-18T07:30:08.609Z,92700.22
2022-10-18T07:32:35.490Z,92694.22
2022-10-18T07:35:02.537Z,92694.00
2022-10-18T07:37:30.414Z,92692.16
2022-10-18T07:39:57.236Z,92681.53
2022-10-18T07:42:23.954Z,92678.09
2022-10-18T07:44:50.810Z,92687.16
2022-10-18T07:47:18.183Z,92684.25
2022-10-18T07:49:45.227Z,92677.59
2022-10-18T07:52:11.949Z,92674.06
2022-10-18T07:54:38.703Z,92677.44
2022-10-18T07:57:05.493Z,92670.06
2022-10-18T07:59:32.220Z,92659.34
2022-10-18T08:01:59.005Z,92657.59
2022-10-18T08:04:31.452Z,92621.03
2022-10-18T08:06:58.140Z,92653.44
2022-10-18T08:09:24.826Z,92634.25
2022-10-18T08:11:51.519Z,92639.06
2022-10-18T08:14:18.493Z,92640.06
2022-10-18T08:16:45.339Z,92632.34
2022-10-18T08:19:12.148Z,92635.94
2022-10-18T08:21:38.824Z,92632.56
2022-10-18T08:24:05.817Z,92624.69
2022-10-18T08:26:32.748Z,92630.78
2022-10-18T08:29:17.777Z,92614.00
2022-10-18T08:31:46.096Z,92616.28
2022-10-18T08:34:17.298Z,92599.56
2022-10-18T08:36:46.287Z,92605.78
2022-10-18T08:39:12.962Z,92603.03
2022-10-18T08:42:07.396Z,92603.94
2022-10-18T08:44:44.067Z,92597.00
2022-10-18T08:47:21.369Z,92607.56
2022-10-18T08:49:56.757Z,92595.00
2022-10-18T08:53:17.398Z,92591.69
2022-10-18T08:55:54.805Z,92581.34
2022-10-18T08:58:24.781Z,92582.19
2022-10-18T09:01:24.609Z,92577.16
2022-10-18T09:04:16.275Z,92572.19
2022-10-18T09:06:58.250Z,92569.16
2022-10-18T09:09:36.975Z,92569.47
2022-10-18T09:12:03.965Z,92546.75
2022-10-18T09:14:46.835Z,92560.72
2022-10-18T09:17:43.194Z,92549.78
2022-10-18T09:20:22.134Z,92558.16
2022-10-18T09:22:53.730Z,92559.41
2022-10-18T09:25:23.699Z,92545.41
2022-10-18T09:27:55.975Z,92555.47
2022-10-18T09:30:39.676Z,92546.44
2022-10-18T09:33:12.521Z,92540.41
2022-10-18T09:36:08.362Z,92528.78
2022-10-18T09:38:45.383Z,92526.47
2022-10-18T09:41:15.098Z,92528.13
2022-10-18T09:43:56.655Z,92524.97
2022-10-18T09:46:26.781Z,92498.06
2022-10-18T09:48:59.523Z,92518.91
2022-10-18T09:51:30.840Z,92491.31
2022-10-18T09:54:22.174Z,92507.94
2022-10-18T09:57:03.607Z,92498.53
2022-10-18T09:59:35.579Z,92494.94
2022-10-18T10:02:02.313Z,92487.09
2022-10-18T10:04:29.094Z,92468.34
2022-10-18T10:06:57.198Z,92478.75
2022-10-18T10:09:30.056Z,92468.13
2022-10-18T10:11:58.115Z,92464.47
2022-10-18T10:14:27.592Z,92449.81
2022-10-18T10:17:02.494Z,92447.66
2022-10-18T10:19:32.008Z,92441.19
2022-10-18T10:22:12.189Z,92441.19
2022-10-18T10:24:54.787Z,92441.19
2022-10-18T10:27:29.765Z,92445.72
2022-10-18T10:30:06.790Z,92436.19
2022-10-18T10:32:46.711Z,92433.22
2022-10-18T10:35:53.207Z,92425.13
2022-10-18T10:38:26.246Z,92419.81
2022-10-18T10:40:53.425Z,92429.09
2022-10-18T10:43:37.625Z,92419.03
2022-10-18T10:46:12.888Z,92405.22
2022-10-18T10:48:41.631Z,92412.47
2022-10-18T10:51:11.107Z,92401.59
2022-10-18T10:53:51.417Z,92390.28
2022-10-18T10:56:50.106Z,92383.72
2022-10-18T10:59:20.531Z,92386.38
2022-10-18T11:01:51.510Z,92379.84
2022-10-18T11:04:30.240Z,92375.63
2022-10-18T11:07:17.105Z,92379.81
2022-10-18T11:09:59.000Z,92379.00
2022-10-18T11:12:33.458Z,92373.00
2022-10-18T11:15:18.393Z,92377.75
2022-10-18T11:17:51.307Z,92371.59
2022-10-18T11:20:24.301Z,92361.38
2022-10-18T11:22:56.963Z,92360.44
2022-10-18T11:25:27.875Z,92352.47
2022-10-18T11:28:06.046Z,92349.28
2022-10-18T11:30:58.995Z,92348.72
2022-10-18T11:34:14.043Z,92322.22
2022-10-18T11:37:29.961Z,92336.13
2022-10-18T11:40:06.873Z,92326.00
2022-10-18T11:43:14.792Z,92324.19
2022-10-18T11:46:00.631Z,92318.28
2022-10-18T11:48:59.009Z,92324.66
2022-10-18T11:51:34.097Z,92321.59
2022-10-18T11:54:33.586Z,92307.38
2022-10-18T11:57:22.074Z,92301.09
2022-10-18T11:59:57.780Z,92292.94
2022-10-18T12:02:45.646Z,92269.09
2022-10-18T12:05:28.723Z,92283.16
2022-10-18T12:08:15.551Z,92287.28
2022-10-18T12:11:03.890Z,92274.22
2022-10-18T12:13:58.874Z,92279.53
2022-10-18T12:16:49.991Z,92285.03
2022-10-18T12:19:26.746Z,92277.41
2022-10-18T12:22:03.177Z,92274.66
2022-10-18T12:24:32.059Z,92270.44
2022-10-18T12:27:01.570Z,92272.53
2022-10-18T12:29:53.601Z,92270.19
2022-10-18T12:32:34.914Z,92267.88
2022-10-18T12:35:11.289Z,92262.53
2022-10-18T12:37:56.007Z,92263.47
2022-10-18T12:40:44.600Z,92261.16
2022-10-18T12:43:21.497Z,92236.66
2022-10-18T12:45:55.271Z,92266.50
2022-10-18T12:48:33.213Z,92268.31
2022-10-18T12:51:05.919Z,92261.47
2022-10-18T12:53:33.826Z,92261.78
2022-10-18T12:56:36.828Z,92261.44
2022-10-18T12:59:18.833Z,92248.91
2022-10-18T13:01:51.679Z,92246.28
2022-10-18T13:04:27.940Z,92251.47
2022-10-18T13:07:00.710Z,92241.34
2022-10-18T13:09:29.899Z,92241.34
2022-10-18T13:12:21.183Z,92235.06
2022-10-18T13:15:37.649Z,92241.28
2022-10-18T13:18:24.460Z,92218.53
2022-10-18T13:21:10.594Z,92218.16
2022-10-18T13:24:00.372Z,92227.53
2022-10-18T13:26:58.132Z,92238.44
2022-10-18T13:29:54.239Z,92234.25
2022-10-18T13:32:57.390Z,92239.81
2022-10-18T13:35:43.385Z,92237.63
2022-10-18T13:38:47.820Z,92219.44
2022-10-18T13:44:23.018Z,92227.19
2022-10-18T13:46:49.659Z,92216.19
2022-10-18T13:49:31.538Z,92215.06
2022-10-18T13:52:20.764Z,92212.97
2022-10-18T13:54:56.631Z,92205.78
2022-10-18T13:57:47.706Z,92206.59
2022-10-18T14:00:37.933Z,92206.44
2022-10-18T14:04:02.461Z,92209.03
2022-10-18T14:06:50.555Z,92200.19
2022-10-18T14:09:43.377Z,92194.56
2022-10-18T14:12:44.278Z,92201.13
2022-10-18T14:15:34.466Z,92195.13
2022-10-18T14:18:41.573Z,92188.44
2022-10-18T14:21:19.859Z,92195.91
2022-10-18T14:23:48.445Z,92195.75
2022-10-18T14:26:18.628Z,92189.84
2022-10-18T14:28:59.528Z,92163.25
2022-10-18T14:31:27.630Z,92187.75
2022-10-18T14:33:58.439Z,92188.06
2022-10-18T14:36:29.642Z,92178.38
2022-10-18T14:38:59.357Z,92177.34
2022-10-18T14:41:28.843Z,92178.25
2022-10-18T14:44:29.715Z,92183.91
2022-10-18T14:47:01.407Z,92176.53
2022-10-18T14:49:28.886Z,92174.44
2022-10-18T14:51:58.681Z,92178.25
2022-10-18T14:54:31.687Z,92183.25
2022-10-18T14:57:00.805Z,92195.41
2022-10-18T14:59:30.967Z,92193.88
2022-10-18T15:02:14.401Z,92165.91
2022-10-18T15:04:46.056Z,92189.75
2022-10-18T15:07:18.349Z,92193.19
2022-10-18T15:09:47.239Z,92196.19
2022-10-18T15:12:16.446Z,92171.94
2022-10-18T15:14:44.828Z,92194.25
2022-10-18T15:17:21.261Z,92196.16
2022-10-18T15:20:28.707Z,92201.31
2022-10-18T15:23:21.194Z,92198.97
2022-10-18T15:25:48.791Z,92173.22
2022-10-18T15:28:29.484Z,92194.41
2022-10-18T15:30:58.600Z,92193.84
2022-10-18T15:33:27.719Z,92187.50
2022-10-18T15:35:55.124Z,92197.13
2022-10-18T15:38:29.451Z,92195.22
2022-10-18T15:40:56.155Z,92196.03
2022-10-18T15:43:26.186Z,92197.84
2022-10-18T15:45:58.825Z,92196.63
2022-10-18T15:48:33.742Z,92184.81
2022-10-18T15:51:04.865Z,92204.84
2022-10-18T15:53:43.849Z,92202.84
2022-10-18T15:56:32.820Z,92200.75
2022-10-18T15:59:04.335Z,92201.56
2022-10-18T16:01:44.379Z,92219.25
2022-10-18T16:04:20.234Z,92215.84
2022-10-18T16:06:46.873Z,92221.28
2022-10-18T16:09:17.921Z,92223.63
2022-10-18T16:11:45.346Z,92218.56
2022-10-18T16:14:12.035Z,92225.22
2022-10-18T16:16:40.430Z,92227.69
2022-10-18T16:19:07.967Z,92228.31
2022-10-18T16:21:38.183Z,92229.47
2022-10-18T16:24:05.928Z,92232.19
2022-10-18T16:26:33.284Z,92212.59
2022-10-18T16:29:00.777Z,92222.34
2022-10-18T16:31:30.866Z,92218.28
2022-10-18T16:33:58.538Z,92231.25
2022-10-18T16:36:29.101Z,92237.84
2022-10-18T16:38:57.661Z,92232.00
2022-10-18T16:41:24.803Z,92238.59
2022-10-18T16:43:51.554Z,92222.09
2022-10-18T16:46:21.181Z,92243.31
2022-10-18T16:48:49.923Z,92238.16
2022-10-18T16:51:17.994Z,92236.03
2022-10-18T16:53:44.872Z,92244.66
2022-10-18T16:56:39.046Z,92224.16
2022-10-18T16:59:05.774Z,92257.78
2022-10-18T17:01:32.746Z,92257.19
2022-10-18T17:03:59.416Z,92237.22
2022-10-18T17:06:28.399Z,92245.06
2022-10-18T17:08:56.224Z,92239.53
2022-10-18T17:11:25.450Z,92256.44
2022-10-18T17:13:52.281Z,92253.75
2022-10-18T17:16:34.911Z,92257.69
2022-10-18T17:19:04.721Z,92257.75
2022-10-18T17:21:33.542Z,92256.94
2022-10-18T17:24:04.517Z,92255.31
2022-10-18T17:26:32.505Z,92257.81
2022-10-18T17:29:05.504Z,92261.56
2022-10-18T17:31:33.220Z,92259.69
2022-10-18T17:34:01.860Z,92263.19
2022-10-18T17:36:32.763Z,92262.97
2022-10-18T17:38:59.552Z,92263.69
2022-10-18T17:41:26.352Z,92263.25
2022-10-18T17:43:53.429Z,92254.09
2022-10-18T17:46:20.356Z,92268.41
2022-10-18T17:48:47.482Z,92261.91
2022-10-18T17:51:16.544Z,92247.44
2022-10-18T17:53:43.299Z,92260.91
2022-10-18T17:56:11.107Z,92262.78
2022-10-18T17:58:37.848Z,92231.09
2022-10-18T18:01:14.920Z,92249.19
2022-10-18T18:03:42.060Z,92223.00
2022-10-18T18:06:20.976Z,92245.69
2022-10-18T18:08:48.592Z,92246.91
2022-10-18T18:11:16.377Z,92245.25
2022-10-18T18:13:43.687Z,92243.19
2022-10-18T18:16:21.897Z,92244.16
2022-10-18T18:18:51.213Z,92243.50
2022-10-18T18:21:17.988Z,92236.09
2022-10-18T18:23:45.239Z,92229.44
2022-10-18T18:26:11.942Z,92238.06
2022-10-18T18:28:39.029Z,92241.72
2022-10-18T18:31:17.607Z,92238.00
2022-10-18T18:33:45.102Z,92236.78
2022-10-18T18:36:12.676Z,92233.41
2022-10-18T18:38:42.738Z,92216.00
2022-10-18T18:41:18.807Z,92227.38
2022-10-18T18:44:00.344Z,92215.00
2022-10-18T18:46:29.554Z,92215.25
2022-10-18T18:48:59.351Z,92218.69
2022-10-18T18:51:26.398Z,92211.09
2022-10-18T18:53:53.295Z,92220.16
2022-10-18T18:56:23.655Z,92208.25
2022-10-18T18:58:52.561Z,92210.00
2022-10-18T19:01:24.953Z,92192.34
2022-10-18T19:03:53.550Z,92206.09
2022-10-18T19:06:23.531Z,92205.97
2022-10-18T19:08:52.693Z,92152.06
2022-10-18T19:11:21.457Z,92193.94
2022-10-18T19:13:49.011Z,92200.91
2022-10-18T19:16:24.866Z,92205.91
2022-10-18T19:19:05.480Z,92208.19
2022-10-18T19:21:35.406Z,92196.25
2022-10-18T19:24:03.572Z,92198.22
2022-10-18T19:26:44.972Z,92195.91
2022-10-18T19:29:21.448Z,92193.38
2022-10-18T19:31:49.392Z,92188.72
2022-10-18T19:34:17.373Z,92191.59
2022-10-18T19:36:46.604Z,92192.94
2022-10-18T19:39:24.678Z,92193.91
2022-10-18T19:41:55.281Z,92190.19
2022-10-18T19:44:23.844Z,92191.06
2022-10-18T19:46:51.047Z,92187.06
2022-10-18T19:49:18.509Z,92179.81
2022-10-18T19:51:45.331Z,92187.28
2022-10-18T19:54:13.607Z,92183.69
2022-10-18T19:56:43.742Z,92180.97
2022-10-18T19:59:11.952Z,92182.13
2022-10-18T20:01:38.977Z,92186.06
2022-10-18T20:04:07.412Z,92187.84
2022-10-18T20:06:35.131Z,92169.81
2022-10-18T20:09:01.835Z,92184.13
2022-10-18T20:11:29.250Z,92181.78
2022-10-18T20:13:56.896Z,92180.19
2022-10-18T20:16:28.314Z,92185.31
2022-10-18T20:19:00.160Z,92178.03
2022-10-18T20:21:28.745Z,92175.84
2022-10-18T20:23:55.936Z,92168.63
2022-10-18T20:26:25.379Z,92162.66
2022-10-18T20:28:57.150Z,92161.81
2022-10-18T20:31:35.677Z,92163.66
2022-10-18T20:34:05.027Z,92163.22
2022-10-18T20:36:32.660Z,92146.56
2022-10-18T20:38:59.596Z,92152.44
2022-10-18T20:41:27.917Z,92148.41
2022-10-18T20:43:59.802Z,92146.91
2022-10-18T20:46:29.879Z,92147.06
2022-10-18T20:48:56.621Z,92147.84
2022-10-18T20:51:23.828Z,92135.75
2022-10-18T20:53:51.463Z,92133.03
2022-10-18T20:56:21.215Z,92131.06
2022-10-18T20:58:51.032Z,92129.34
2022-10-18T21:01:20.922Z,92123.44
2022-10-18T21:03:49.155Z,92128.78
2022-10-18T21:06:21.670Z,92104.50
2022-10-18T21:08:52.966Z,92123.50
2022-10-18T21:11:19.674Z,92118.31
2022-10-18T21:13:59.013Z,92108.75
2022-10-18T21:16:26.818Z,92123.53
2022-10-18T21:18:53.723Z,92113.31
2022-10-18T21:21:23.189Z,92084.00
2022-10-18T21:23:51.165Z,92105.22
2022-10-18T21:26:19.054Z,92099.84
2022-10-18T21:28:46.011Z,92092.50
2022-10-18T21:31:18.335Z,92095.25
2022-10-18T21:33:46.576Z,92088.81
2022-10-18T21:36:14.615Z,92090.28
2022-10-18T21:38:45.669Z,92084.69
2022-10-18T21:41:14.587Z,92081.97
2022-10-18T21:43:43.772Z,92069.47
2022-10-18T21:46:11.746Z,92070.38
2022-10-18T21:48:39.439Z,92035.72
2022-10-18T21:51:07.550Z,92065.78
2022-10-18T21:53:34.896Z,92056.75
2022-10-18T21:56:06.906Z,92058.28
2022-10-18T21:58:37.115Z,92042.53
2022-10-18T22:01:11.734Z,92053.09
2022-10-18T22:03:38.685Z,92048.25
2022-10-18T22:06:13.710Z,92042.44
2022-10-18T22:08:48.082Z,92045.06
2022-10-18T22:11:15.049Z,92044.28
2022-10-18T22:13:42.456Z,92021.41
2022-10-18T22:16:11.659Z,92043.25
2022-10-18T22:18:38.357Z,92030.41
2022-10-18T22:21:07.439Z,92021.22
2022-10-18T22:23:36.381Z,92021.03
2022-10-18T22:26:11.481Z,92023.50
2022-10-18T22:28:39.671Z,92020.03
2022-10-18T22:31:06.969Z,92018.03
2022-10-18T22:33:33.772Z,91985.97
2022-10-18T22:36:00.546Z,92018.78
2022-10-18T22:38:27.240Z,91997.88
2022-10-18T22:40:53.851Z,91991.13
2022-10-18T22:43:20.607Z,91992.06
2022-10-18T22:45:47.231Z,91997.09
2022-10-18T22:48:13.864Z,91994.38
2022-10-18T22:50:40.568Z,91994.84
2022-10-18T22:53:07.513Z,91996.97
2022-10-18T22:55:34.205Z,91974.69
2022-10-18T22:58:00.831Z,91988.56
2022-10-18T23:00:27.707Z,91992.56
2022-10-18T23:02:54.373Z,91984.75
2022-10-18T23:05:21.006Z,91990.56
2022-10-18T23:07:49.329Z,91993.00
2022-10-18T23:10:16.546Z,91994.97
2022-10-18T23:12:43.237Z,91981.69
2022-10-18T23:15:10.425Z,91979.72
2022-10-18T23:17:37.558Z,91986.91
2022-10-18T23:20:05.469Z,91982.59
2022-10-18T23:22:34.136Z,91977.56
2022-10-18T23:25:01.116Z,91970.72
2022-10-18T23:27:29.277Z,91969.00
2022-10-18T23:29:56.195Z,91965.50
2022-10-18T23:32:22.845Z,91960.31
2022-10-18T23:34:49.547Z,91952.53
2022-10-18T23:37:16.254Z,91953.91
2022-10-18T23:39:42.926Z,91947.16
2022-10-18T23:42:09.689Z,91951.56
2022-10-18T23:44:36.844Z,91955.09
2022-10-18T23:47:03.570Z,91950.38
2022-10-18T23:49:30.306Z,91948.84
2022-10-18T23:51:56.933Z,91937.69
2022-10-18T23:54:23.589Z,91943.34
2022-10-18T23:56:50.235Z,91934.81
2022-10-18T23:59:17.127Z,91928.22
